Dubuisson, Canada
Current Conditions -  °F | °C
As of 2:00 PM on Tuesday 21 Oct 2014 (Local Time) from CYVO Reporting Station
Scattered Clouds Scattered Clouds  
Wind Chill: 31°   Ceiling: Unl
Heat Index: 39°   Visibility: 15mi
Dew Point: 28°   Wind: 15mph
Humidity: 65%   Direction: 40°NE
Pressure: 30.18"   Gusts: NA
Location:  48.1°N, 77.9°W
Report Text: CYVO 211800Z 04013KT 360V060 15SM SCT028 04/M02 A3018 RMK SC4 SLP240
Loading
Personal Weather Stations






























Interactive Weather Map
Tropical Storm Tracking
New forecast layout! Learn more

10-Day Weather Forecast

Advertisements
Track Severe Weather on mobile